sensor_id;sensor_type;location;lat;lon;timestamp;P1;durP1;ratioP1;P2;durP2;ratioP2
58553;SDS011;48119;53.218;6.576;2022-12-07T00:01:13;6.25;;;1.75;;
58553;SDS011;48119;53.218;6.576;2022-12-07T00:03:41;12.32;;;2.67;;
58553;SDS011;48119;53.218;6.576;2022-12-07T00:06:09;4.60;;;1.23;;
58553;SDS011;48119;53.218;6.576;2022-12-07T00:08:36;6.07;;;1.85;;
58553;SDS011;48119;53.218;6.576;2022-12-07T00:11:03;8.25;;;1.83;;
58553;SDS011;48119;53.218;6.576;2022-12-07T00:13:34;6.05;;;1.63;;
58553;SDS011;48119;53.218;6.576;2022-12-07T00:16:05;7.07;;;1.83;;
58553;SDS011;48119;53.218;6.576;2022-12-07T00:18:31;4.50;;;1.40;;
58553;SDS011;48119;53.218;6.576;2022-12-07T00:21:04;5.93;;;2.13;;
58553;SDS011;48119;53.218;6.576;2022-12-07T00:23:33;6.60;;;1.95;;
58553;SDS011;48119;53.218;6.576;2022-12-07T00:26:03;10.77;;;3.33;;
58553;SDS011;48119;53.218;6.576;2022-12-07T00:28:33;8.32;;;2.70;;
58553;SDS011;48119;53.218;6.576;2022-12-07T00:31:00;6.88;;;2.80;;
58553;SDS011;48119;53.218;6.576;2022-12-07T00:33:26;11.95;;;3.30;;
58553;SDS011;48119;53.218;6.576;2022-12-07T00:35:57;8.02;;;2.90;;
58553;SDS011;48119;53.218;6.576;2022-12-07T00:38:23;10.30;;;3.70;;
58553;SDS011;48119;53.218;6.576;2022-12-07T00:40:59;7.50;;;3.08;;
58553;SDS011;48119;53.218;6.576;2022-12-07T00:43:27;12.00;;;3.90;;
58553;SDS011;48119;53.218;6.576;2022-12-07T00:45:53;13.38;;;3.60;;
58553;SDS011;48119;53.218;6.576;2022-12-07T00:48:20;12.95;;;4.07;;
58553;SDS011;48119;53.218;6.576;2022-12-07T00:50:46;18.30;;;3.25;;
58553;SDS011;48119;53.218;6.576;2022-12-07T00:53:12;8.15;;;2.13;;
58553;SDS011;48119;53.218;6.576;2022-12-07T00:55:38;5.40;;;1.48;;
58553;SDS011;48119;53.218;6.576;2022-12-07T00:58:04;8.63;;;1.88;;
58553;SDS011;48119;53.218;6.576;2022-12-07T01:00:29;5.63;;;1.27;;
58553;SDS011;48119;53.218;6.576;2022-12-07T01:02:56;4.50;;;1.00;;
58553;SDS011;48119;53.218;6.576;2022-12-07T01:05:21;7.53;;;1.10;;
58553;SDS011;48119;53.218;6.576;2022-12-07T01:07:47;4.70;;;1.15;;
58553;SDS011;48119;53.218;6.576;2022-12-07T01:10:13;5.60;;;1.33;;
58553;SDS011;48119;53.218;6.576;2022-12-07T01:12:39;4.78;;;1.40;;
58553;SDS011;48119;53.218;6.576;2022-12-07T01:15:06;6.18;;;1.02;;
58553;SDS011;48119;53.218;6.576;2022-12-07T01:17:32;8.27;;;1.88;;
58553;SDS011;48119;53.218;6.576;2022-12-07T01:19:58;6.90;;;2.20;;
58553;SDS011;48119;53.218;6.576;2022-12-07T01:22:24;5.22;;;1.20;;
58553;SDS011;48119;53.218;6.576;2022-12-07T01:24:50;9.57;;;1.08;;
58553;SDS011;48119;53.218;6.576;2022-12-07T01:27:16;6.82;;;1.35;;
58553;SDS011;48119;53.218;6.576;2022-12-07T01:29:42;5.88;;;1.30;;
58553;SDS011;48119;53.218;6.576;2022-12-07T01:32:07;5.75;;;1.40;;
58553;SDS011;48119;53.218;6.576;2022-12-07T01:34:33;6.43;;;1.48;;
58553;SDS011;48119;53.218;6.576;2022-12-07T01:36:59;4.63;;;1.45;;
58553;SDS011;48119;53.218;6.576;2022-12-07T01:39:25;9.02;;;1.98;;
58553;SDS011;48119;53.218;6.576;2022-12-07T01:41:52;10.35;;;1.80;;
58553;SDS011;48119;53.218;6.576;2022-12-07T01:44:22;8.48;;;1.25;;
58553;SDS011;48119;53.218;6.576;2022-12-07T01:54:40;5.03;;;1.35;;
58553;SDS011;48119;53.218;6.576;2022-12-07T01:57:07;5.97;;;1.50;;
58553;SDS011;48119;53.218;6.576;2022-12-07T01:59:33;4.45;;;1.35;;
58553;SDS011;48119;53.218;6.576;2022-12-07T02:02:00;7.18;;;1.50;;
58553;SDS011;48119;53.218;6.576;2022-12-07T02:04:36;6.95;;;1.50;;
58553;SDS011;48119;53.218;6.576;2022-12-07T02:07:02;5.50;;;1.30;;
58553;SDS011;48119;53.218;6.576;2022-12-07T02:09:29;6.57;;;2.15;;
58553;SDS011;48119;53.218;6.576;2022-12-07T02:11:55;8.27;;;2.95;;
58553;SDS011;48119;53.218;6.576;2022-12-07T02:14:21;4.93;;;1.80;;
58553;SDS011;48119;53.218;6.576;2022-12-07T02:16:51;9.88;;;2.72;;
58553;SDS011;48119;53.218;6.576;2022-12-07T02:27:45;6.43;;;1.60;;
58553;SDS011;48119;53.218;6.576;2022-12-07T02:30:16;10.10;;;2.72;;
58553;SDS011;48119;53.218;6.576;2022-12-07T02:32:47;8.32;;;2.58;;
58553;SDS011;48119;53.218;6.576;2022-12-07T02:40:53;10.43;;;3.20;;
58553;SDS011;48119;53.218;6.576;2022-12-07T02:43:27;12.73;;;2.85;;
58553;SDS011;48119;53.218;6.576;2022-12-07T02:45:57;13.70;;;3.38;;
58553;SDS011;48119;53.218;6.576;2022-12-07T02:48:28;4.60;;;1.17;;
58553;SDS011;48119;53.218;6.576;2022-12-07T02:50:56;7.32;;;1.75;;
58553;SDS011;48119;53.218;6.576;2022-12-07T02:53:39;5.78;;;1.60;;
58553;SDS011;48119;53.218;6.576;2022-12-07T02:56:21;3.80;;;1.15;;
58553;SDS011;48119;53.218;6.576;2022-12-07T02:59:14;5.72;;;1.00;;
58553;SDS011;48119;53.218;6.576;2022-12-07T03:07:16;5.18;;;1.40;;
58553;SDS011;48119;53.218;6.576;2022-12-07T03:12:41;4.18;;;1.08;;
58553;SDS011;48119;53.218;6.576;2022-12-07T03:15:14;4.10;;;1.10;;
58553;SDS011;48119;53.218;6.576;2022-12-07T03:17:56;8.35;;;0.90;;
58553;SDS011;48119;53.218;6.576;2022-12-07T03:20:24;6.55;;;1.38;;
58553;SDS011;48119;53.218;6.576;2022-12-07T03:22:52;4.55;;;1.20;;
58553;SDS011;48119;53.218;6.576;2022-12-07T03:25:20;2.85;;;0.88;;
58553;SDS011;48119;53.218;6.576;2022-12-07T03:30:31;5.40;;;1.45;;
58553;SDS011;48119;53.218;6.576;2022-12-07T03:33:08;5.88;;;1.20;;
58553;SDS011;48119;53.218;6.576;2022-12-07T03:35:48;3.28;;;1.00;;
58553;SDS011;48119;53.218;6.576;2022-12-07T03:39:12;5.15;;;0.90;;
58553;SDS011;48119;53.218;6.576;2022-12-07T03:41:23;7.45;;;1.63;;
58553;SDS011;48119;53.218;6.576;2022-12-07T03:43:53;4.63;;;1.15;;
58553;SDS011;48119;53.218;6.576;2022-12-07T03:51:51;4.53;;;1.10;;
58553;SDS011;48119;53.218;6.576;2022-12-07T03:55:11;7.47;;;1.30;;
58553;SDS011;48119;53.218;6.576;2022-12-07T03:57:16;4.15;;;0.90;;
58553;SDS011;48119;53.218;6.576;2022-12-07T03:59:43;6.63;;;1.27;;
58553;SDS011;48119;53.218;6.576;2022-12-07T04:02:11;5.82;;;1.00;;
58553;SDS011;48119;53.218;6.576;2022-12-07T04:04:38;5.47;;;1.20;;
58553;SDS011;48119;53.218;6.576;2022-12-07T04:07:04;2.90;;;0.70;;
58553;SDS011;48119;53.218;6.576;2022-12-07T04:09:31;3.78;;;0.93;;
58553;SDS011;48119;53.218;6.576;2022-12-07T04:11:57;3.25;;;0.77;;
58553;SDS011;48119;53.218;6.576;2022-12-07T04:14:23;5.50;;;1.00;;
58553;SDS011;48119;53.218;6.576;2022-12-07T04:16:50;4.57;;;1.10;;
58553;SDS011;48119;53.218;6.576;2022-12-07T04:19:18;7.47;;;0.90;;
58553;SDS011;48119;53.218;6.576;2022-12-07T04:21:45;5.15;;;0.90;;
58553;SDS011;48119;53.218;6.576;2022-12-07T04:24:12;2.25;;;0.90;;
58553;SDS011;48119;53.218;6.576;2022-12-07T04:26:39;7.22;;;1.45;;
58553;SDS011;48119;53.218;6.576;2022-12-07T04:29:06;7.45;;;1.45;;
58553;SDS011;48119;53.218;6.576;2022-12-07T04:31:32;8.43;;;1.27;;
58553;SDS011;48119;53.218;6.576;2022-12-07T04:33:58;5.90;;;1.20;;
58553;SDS011;48119;53.218;6.576;2022-12-07T04:36:24;5.90;;;1.48;;
58553;SDS011;48119;53.218;6.576;2022-12-07T04:38:50;5.53;;;1.15;;
58553;SDS011;48119;53.218;6.576;2022-12-07T04:41:18;9.45;;;1.63;;
58553;SDS011;48119;53.218;6.576;2022-12-07T04:43:55;6.65;;;1.15;;
58553;SDS011;48119;53.218;6.576;2022-12-07T04:46:22;3.75;;;0.80;;
58553;SDS011;48119;53.218;6.576;2022-12-07T04:48:49;10.82;;;1.58;;
58553;SDS011;48119;53.218;6.576;2022-12-07T04:51:18;6.47;;;1.50;;
58553;SDS011;48119;53.218;6.576;2022-12-07T04:53:45;4.10;;;1.27;;
58553;SDS011;48119;53.218;6.576;2022-12-07T04:56:11;6.07;;;1.42;;
58553;SDS011;48119;53.218;6.576;2022-12-07T04:58:37;3.75;;;0.93;;
58553;SDS011;48119;53.218;6.576;2022-12-07T05:01:03;6.15;;;1.40;;
58553;SDS011;48119;53.218;6.576;2022-12-07T05:03:28;4.43;;;0.80;;
58553;SDS011;48119;53.218;6.576;2022-12-07T05:05:54;2.65;;;0.88;;
58553;SDS011;48119;53.218;6.576;2022-12-07T05:08:20;4.55;;;1.20;;
58553;SDS011;48119;53.218;6.576;2022-12-07T05:10:45;4.90;;;0.98;;
58553;SDS011;48119;53.218;6.576;2022-12-07T05:13:14;6.32;;;1.20;;
58553;SDS011;48119;53.218;6.576;2022-12-07T05:15:39;4.47;;;0.93;;
58553;SDS011;48119;53.218;6.576;2022-12-07T05:18:05;3.60;;;0.98;;
58553;SDS011;48119;53.218;6.576;2022-12-07T05:20:31;9.73;;;2.28;;
58553;SDS011;48119;53.218;6.576;2022-12-07T05:22:57;4.57;;;1.25;;
58553;SDS011;48119;53.218;6.576;2022-12-07T05:25:23;7.15;;;1.42;;
58553;SDS011;48119;53.218;6.576;2022-12-07T05:27:49;7.60;;;1.52;;
58553;SDS011;48119;53.218;6.576;2022-12-07T05:30:15;6.90;;;0.90;;
58553;SDS011;48119;53.218;6.576;2022-12-07T05:32:41;6.88;;;1.63;;
58553;SDS011;48119;53.218;6.576;2022-12-07T05:35:07;7.82;;;1.27;;
58553;SDS011;48119;53.218;6.576;2022-12-07T05:37:33;8.27;;;1.48;;
58553;SDS011;48119;53.218;6.576;2022-12-07T05:40:00;3.85;;;1.08;;
58553;SDS011;48119;53.218;6.576;2022-12-07T05:42:26;6.95;;;1.17;;
58553;SDS011;48119;53.218;6.576;2022-12-07T05:44:53;6.38;;;1.83;;
58553;SDS011;48119;53.218;6.576;2022-12-07T05:47:20;4.50;;;1.58;;
58553;SDS011;48119;53.218;6.576;2022-12-07T05:49:46;4.70;;;1.15;;
58553;SDS011;48119;53.218;6.576;2022-12-07T05:52:12;5.32;;;1.40;;
58553;SDS011;48119;53.218;6.576;2022-12-07T05:54:37;7.15;;;1.40;;
58553;SDS011;48119;53.218;6.576;2022-12-07T05:57:03;11.85;;;2.47;;
58553;SDS011;48119;53.218;6.576;2022-12-07T05:59:29;13.30;;;1.95;;
58553;SDS011;48119;53.218;6.576;2022-12-07T06:04:31;5.88;;;1.92;;
58553;SDS011;48119;53.218;6.576;2022-12-07T06:07:00;10.60;;;1.85;;
58553;SDS011;48119;53.218;6.576;2022-12-07T06:09:26;4.63;;;1.58;;
58553;SDS011;48119;53.218;6.576;2022-12-07T06:11:53;8.77;;;1.42;;
58553;SDS011;48119;53.218;6.576;2022-12-07T06:14:55;6.57;;;1.95;;
58553;SDS011;48119;53.218;6.576;2022-12-07T06:17:21;7.65;;;1.60;;
58553;SDS011;48119;53.218;6.576;2022-12-07T06:19:47;5.07;;;1.63;;
58553;SDS011;48119;53.218;6.576;2022-12-07T06:22:13;10.55;;;1.95;;
58553;SDS011;48119;53.218;6.576;2022-12-07T06:24:42;6.47;;;1.10;;
58553;SDS011;48119;53.218;6.576;2022-12-07T06:27:08;7.03;;;1.23;;
58553;SDS011;48119;53.218;6.576;2022-12-07T06:29:34;7.38;;;1.60;;
58553;SDS011;48119;53.218;6.576;2022-12-07T06:32:00;5.18;;;0.88;;
58553;SDS011;48119;53.218;6.576;2022-12-07T06:34:26;6.13;;;0.95;;
58553;SDS011;48119;53.218;6.576;2022-12-07T06:36:52;5.20;;;1.73;;
58553;SDS011;48119;53.218;6.576;2022-12-07T06:39:24;4.00;;;1.10;;
58553;SDS011;48119;53.218;6.576;2022-12-07T06:41:51;5.50;;;1.60;;
58553;SDS011;48119;53.218;6.576;2022-12-07T06:44:17;7.82;;;1.60;;
58553;SDS011;48119;53.218;6.576;2022-12-07T06:46:44;2.65;;;0.88;;
58553;SDS011;48119;53.218;6.576;2022-12-07T06:49:13;5.45;;;1.35;;
58553;SDS011;48119;53.218;6.576;2022-12-07T06:51:39;5.05;;;0.90;;
58553;SDS011;48119;53.218;6.576;2022-12-07T06:54:08;5.05;;;1.38;;
58553;SDS011;48119;53.218;6.576;2022-12-07T06:56:37;5.68;;;1.15;;
58553;SDS011;48119;53.218;6.576;2022-12-07T06:59:03;5.13;;;1.08;;
58553;SDS011;48119;53.218;6.576;2022-12-07T07:01:31;4.57;;;1.20;;
58553;SDS011;48119;53.218;6.576;2022-12-07T07:03:58;4.13;;;1.00;;
58553;SDS011;48119;53.218;6.576;2022-12-07T07:06:24;4.35;;;1.40;;
58553;SDS011;48119;53.218;6.576;2022-12-07T07:08:50;5.40;;;1.75;;
58553;SDS011;48119;53.218;6.576;2022-12-07T07:11:16;6.25;;;1.67;;
58553;SDS011;48119;53.218;6.576;2022-12-07T07:13:42;6.55;;;1.05;;
58553;SDS011;48119;53.218;6.576;2022-12-07T07:16:08;5.68;;;1.70;;
58553;SDS011;48119;53.218;6.576;2022-12-07T07:18:34;8.05;;;1.27;;
58553;SDS011;48119;53.218;6.576;2022-12-07T07:21:00;7.68;;;1.05;;
58553;SDS011;48119;53.218;6.576;2022-12-07T07:23:26;6.22;;;1.45;;
58553;SDS011;48119;53.218;6.576;2022-12-07T07:25:52;8.68;;;1.85;;
58553;SDS011;48119;53.218;6.576;2022-12-07T07:28:18;6.85;;;1.40;;
58553;SDS011;48119;53.218;6.576;2022-12-07T07:30:44;4.25;;;1.20;;
58553;SDS011;48119;53.218;6.576;2022-12-07T07:33:10;2.35;;;0.77;;
58553;SDS011;48119;53.218;6.576;2022-12-07T07:35:36;4.95;;;1.08;;
58553;SDS011;48119;53.218;6.576;2022-12-07T07:38:02;2.72;;;0.95;;
58553;SDS011;48119;53.218;6.576;2022-12-07T07:40:28;4.28;;;1.10;;
58553;SDS011;48119;53.218;6.576;2022-12-07T07:42:54;5.95;;;1.35;;
58553;SDS011;48119;53.218;6.576;2022-12-07T07:45:21;5.68;;;1.05;;
58553;SDS011;48119;53.218;6.576;2022-12-07T07:47:49;7.03;;;1.90;;
58553;SDS011;48119;53.218;6.576;2022-12-07T07:50:15;4.10;;;1.08;;
58553;SDS011;48119;53.218;6.576;2022-12-07T07:52:42;3.70;;;1.20;;
58553;SDS011;48119;53.218;6.576;2022-12-07T07:55:08;5.75;;;1.70;;
58553;SDS011;48119;53.218;6.576;2022-12-07T07:57:35;4.93;;;1.52;;
58553;SDS011;48119;53.218;6.576;2022-12-07T08:00:03;7.05;;;1.55;;
58553;SDS011;48119;53.218;6.576;2022-12-07T08:02:30;5.10;;;1.33;;
58553;SDS011;48119;53.218;6.576;2022-12-07T08:04:56;7.25;;;1.38;;
58553;SDS011;48119;53.218;6.576;2022-12-07T08:07:21;5.13;;;1.50;;
58553;SDS011;48119;53.218;6.576;2022-12-07T08:09:47;11.15;;;1.75;;
58553;SDS011;48119;53.218;6.576;2022-12-07T08:12:13;3.83;;;1.33;;
58553;SDS011;48119;53.218;6.576;2022-12-07T08:14:40;4.80;;;1.23;;
58553;SDS011;48119;53.218;6.576;2022-12-07T08:17:07;6.28;;;1.52;;
58553;SDS011;48119;53.218;6.576;2022-12-07T08:19:33;7.40;;;2.03;;
58553;SDS011;48119;53.218;6.576;2022-12-07T08:21:59;8.70;;;1.70;;
58553;SDS011;48119;53.218;6.576;2022-12-07T08:24:25;9.00;;;2.10;;
58553;SDS011;48119;53.218;6.576;2022-12-07T08:26:51;6.18;;;1.95;;
58553;SDS011;48119;53.218;6.576;2022-12-07T08:29:29;10.85;;;2.47;;
58553;SDS011;48119;53.218;6.576;2022-12-07T08:31:55;9.85;;;1.88;;
58553;SDS011;48119;53.218;6.576;2022-12-07T08:34:21;7.00;;;2.38;;
58553;SDS011;48119;53.218;6.576;2022-12-07T08:36:48;12.00;;;3.35;;
58553;SDS011;48119;53.218;6.576;2022-12-07T08:39:14;9.52;;;2.97;;
58553;SDS011;48119;53.218;6.576;2022-12-07T08:41:40;8.75;;;2.13;;
58553;SDS011;48119;53.218;6.576;2022-12-07T08:44:06;9.27;;;2.25;;
58553;SDS011;48119;53.218;6.576;2022-12-07T08:46:33;7.78;;;1.92;;
58553;SDS011;48119;53.218;6.576;2022-12-07T08:49:16;11.82;;;1.65;;
58553;SDS011;48119;53.218;6.576;2022-12-07T08:51:49;5.38;;;1.85;;
58553;SDS011;48119;53.218;6.576;2022-12-07T08:54:16;6.22;;;1.83;;
58553;SDS011;48119;53.218;6.576;2022-12-07T08:56:44;9.80;;;2.88;;
58553;SDS011;48119;53.218;6.576;2022-12-07T08:59:12;8.15;;;2.03;;
58553;SDS011;48119;53.218;6.576;2022-12-07T09:01:42;11.18;;;2.28;;
58553;SDS011;48119;53.218;6.576;2022-12-07T09:04:08;7.50;;;1.75;;
58553;SDS011;48119;53.218;6.576;2022-12-07T09:06:34;5.93;;;2.03;;
58553;SDS011;48119;53.218;6.576;2022-12-07T09:09:00;3.60;;;1.40;;
58553;SDS011;48119;53.218;6.576;2022-12-07T09:11:27;4.13;;;1.40;;
58553;SDS011;48119;53.218;6.576;2022-12-07T09:13:52;6.25;;;1.67;;
58553;SDS011;48119;53.218;6.576;2022-12-07T09:16:18;6.47;;;1.95;;
58553;SDS011;48119;53.218;6.576;2022-12-07T09:18:44;8.77;;;2.20;;
58553;SDS011;48119;53.218;6.576;2022-12-07T09:21:10;11.73;;;2.50;;
58553;SDS011;48119;53.218;6.576;2022-12-07T09:23:35;7.53;;;1.75;;
58553;SDS011;48119;53.218;6.576;2022-12-07T09:26:02;7.85;;;1.45;;
58553;SDS011;48119;53.218;6.576;2022-12-07T09:28:29;7.50;;;2.30;;
58553;SDS011;48119;53.218;6.576;2022-12-07T09:30:57;5.50;;;1.27;;
58553;SDS011;48119;53.218;6.576;2022-12-07T09:33:22;5.93;;;1.10;;
58553;SDS011;48119;53.218;6.576;2022-12-07T09:35:49;3.75;;;1.40;;
58553;SDS011;48119;53.218;6.576;2022-12-07T09:38:16;3.45;;;1.15;;
58553;SDS011;48119;53.218;6.576;2022-12-07T09:40:42;4.82;;;0.90;;
58553;SDS011;48119;53.218;6.576;2022-12-07T09:43:16;2.88;;;1.00;;
58553;SDS011;48119;53.218;6.576;2022-12-07T09:45:44;10.68;;;2.00;;
58553;SDS011;48119;53.218;6.576;2022-12-07T09:48:19;3.05;;;1.25;;
58553;SDS011;48119;53.218;6.576;2022-12-07T09:50:48;8.82;;;1.65;;
58553;SDS011;48119;53.218;6.576;2022-12-07T09:53:29;7.20;;;1.23;;
58553;SDS011;48119;53.218;6.576;2022-12-07T09:55:58;3.83;;;0.95;;
58553;SDS011;48119;53.218;6.576;2022-12-07T09:58:25;4.50;;;1.08;;
58553;SDS011;48119;53.218;6.576;2022-12-07T10:01:00;6.55;;;1.38;;
58553;SDS011;48119;53.218;6.576;2022-12-07T10:03:33;4.35;;;1.23;;
58553;SDS011;48119;53.218;6.576;2022-12-07T10:06:01;4.88;;;1.83;;
58553;SDS011;48119;53.218;6.576;2022-12-07T10:08:35;6.55;;;1.98;;
58553;SDS011;48119;53.218;6.576;2022-12-07T10:11:01;5.65;;;1.55;;
58553;SDS011;48119;53.218;6.576;2022-12-07T10:13:37;8.02;;;1.70;;
58553;SDS011;48119;53.218;6.576;2022-12-07T10:22:10;3.95;;;1.45;;
58553;SDS011;48119;53.218;6.576;2022-12-07T10:24:56;6.68;;;2.25;;
58553;SDS011;48119;53.218;6.576;2022-12-07T10:27:41;7.47;;;1.55;;
58553;SDS011;48119;53.218;6.576;2022-12-07T10:30:07;7.80;;;2.15;;
58553;SDS011;48119;53.218;6.576;2022-12-07T10:32:50;6.20;;;2.00;;
58553;SDS011;48119;53.218;6.576;2022-12-07T10:37:55;8.95;;;1.85;;
58553;SDS011;48119;53.218;6.576;2022-12-07T10:40:33;5.80;;;2.40;;
58553;SDS011;48119;53.218;6.576;2022-12-07T10:43:04;6.35;;;1.85;;
58553;SDS011;48119;53.218;6.576;2022-12-07T10:51:35;8.55;;;2.05;;
58553;SDS011;48119;53.218;6.576;2022-12-07T11:00:15;7.78;;;2.20;;
58553;SDS011;48119;53.218;6.576;2022-12-07T11:05:43;3.97;;;1.40;;
58553;SDS011;48119;53.218;6.576;2022-12-07T11:08:18;5.68;;;1.27;;
58553;SDS011;48119;53.218;6.576;2022-12-07T11:11:13;7.63;;;1.50;;
58553;SDS011;48119;53.218;6.576;2022-12-07T11:24:50;7.72;;;2.25;;
58553;SDS011;48119;53.218;6.576;2022-12-07T11:27:52;7.93;;;1.80;;
58553;SDS011;48119;53.218;6.576;2022-12-07T11:33:25;8.07;;;1.73;;
58553;SDS011;48119;53.218;6.576;2022-12-07T11:36:07;8.95;;;2.50;;
58553;SDS011;48119;53.218;6.576;2022-12-07T11:38:53;5.60;;;1.17;;
58553;SDS011;48119;53.218;6.576;2022-12-07T11:41:30;7.28;;;1.70;;
58553;SDS011;48119;53.218;6.576;2022-12-07T11:44:06;6.22;;;1.60;;
58553;SDS011;48119;53.218;6.576;2022-12-07T11:46:46;8.98;;;1.70;;
58553;SDS011;48119;53.218;6.576;2022-12-07T11:50:03;7.68;;;1.52;;
58553;SDS011;48119;53.218;6.576;2022-12-07T11:52:09;12.20;;;1.73;;
58553;SDS011;48119;53.218;6.576;2022-12-07T11:55:04;6.60;;;2.00;;
58553;SDS011;48119;53.218;6.576;2022-12-07T11:57:44;6.75;;;1.08;;
58553;SDS011;48119;53.218;6.576;2022-12-07T12:00:15;6.53;;;1.63;;
58553;SDS011;48119;53.218;6.576;2022-12-07T12:05:30;3.72;;;1.00;;
58553;SDS011;48119;53.218;6.576;2022-12-07T12:08:13;5.50;;;1.48;;
58553;SDS011;48119;53.218;6.576;2022-12-07T12:19:23;3.90;;;1.50;;
58553;SDS011;48119;53.218;6.576;2022-12-07T12:21:59;4.60;;;1.55;;
58553;SDS011;48119;53.218;6.576;2022-12-07T12:24:49;3.30;;;1.35;;
58553;SDS011;48119;53.218;6.576;2022-12-07T12:27:23;6.40;;;1.25;;
58553;SDS011;48119;53.218;6.576;2022-12-07T12:29:57;6.10;;;1.88;;
58553;SDS011;48119;53.218;6.576;2022-12-07T12:37:53;6.93;;;1.52;;
58553;SDS011;48119;53.218;6.576;2022-12-07T12:56:10;6.90;;;1.60;;
58553;SDS011;48119;53.218;6.576;2022-12-07T13:01:50;6.90;;;1.40;;
58553;SDS011;48119;53.218;6.576;2022-12-07T13:04:54;7.75;;;1.45;;
58553;SDS011;48119;53.218;6.576;2022-12-07T13:10:24;4.32;;;1.13;;
58553;SDS011;48119;53.218;6.576;2022-12-07T13:15:37;4.35;;;1.30;;
58553;SDS011;48119;53.218;6.576;2022-12-07T13:28:42;7.30;;;1.67;;
58553;SDS011;48119;53.218;6.576;2022-12-07T13:31:13;4.13;;;1.30;;
58553;SDS011;48119;53.218;6.576;2022-12-07T13:33:57;4.43;;;1.30;;
58553;SDS011;48119;53.218;6.576;2022-12-07T13:36:25;11.98;;;1.50;;
58553;SDS011;48119;53.218;6.576;2022-12-07T13:39:16;5.13;;;1.88;;
58553;SDS011;48119;53.218;6.576;2022-12-07T13:41:45;3.03;;;1.05;;
58553;SDS011;48119;53.218;6.576;2022-12-07T13:44:17;4.13;;;1.17;;
58553;SDS011;48119;53.218;6.576;2022-12-07T13:49:48;2.53;;;0.63;;
58553;SDS011;48119;53.218;6.576;2022-12-07T13:52:20;6.55;;;0.95;;
58553;SDS011;48119;53.218;6.576;2022-12-07T13:54:47;3.33;;;0.90;;
58553;SDS011;48119;53.218;6.576;2022-12-07T13:57:15;4.70;;;0.70;;
58553;SDS011;48119;53.218;6.576;2022-12-07T13:59:42;3.92;;;1.88;;
58553;SDS011;48119;53.218;6.576;2022-12-07T14:02:53;2.38;;;0.90;;
58553;SDS011;48119;53.218;6.576;2022-12-07T14:05:29;3.60;;;1.10;;
58553;SDS011;48119;53.218;6.576;2022-12-07T14:13:33;3.72;;;1.30;;
58553;SDS011;48119;53.218;6.576;2022-12-07T14:18:55;5.22;;;1.40;;
58553;SDS011;48119;53.218;6.576;2022-12-07T14:21:29;3.50;;;2.10;;
58553;SDS011;48119;53.218;6.576;2022-12-07T14:26:49;8.70;;;1.67;;
58553;SDS011;48119;53.218;6.576;2022-12-07T14:29:19;5.53;;;2.78;;
58553;SDS011;48119;53.218;6.576;2022-12-07T14:31:47;5.60;;;2.00;;
58553;SDS011;48119;53.218;6.576;2022-12-07T14:34:13;9.35;;;2.25;;
58553;SDS011;48119;53.218;6.576;2022-12-07T14:36:39;5.40;;;1.65;;
58553;SDS011;48119;53.218;6.576;2022-12-07T14:39:05;4.75;;;1.80;;
58553;SDS011;48119;53.218;6.576;2022-12-07T14:41:37;5.05;;;1.35;;
58553;SDS011;48119;53.218;6.576;2022-12-07T14:44:22;8.82;;;2.00;;
58553;SDS011;48119;53.218;6.576;2022-12-07T14:46:50;5.55;;;1.92;;
58553;SDS011;48119;53.218;6.576;2022-12-07T14:49:17;4.05;;;1.40;;
58553;SDS011;48119;53.218;6.576;2022-12-07T14:51:43;4.97;;;1.58;;
58553;SDS011;48119;53.218;6.576;2022-12-07T14:54:13;3.05;;;1.35;;
58553;SDS011;48119;53.218;6.576;2022-12-07T14:56:44;3.67;;;1.10;;
58553;SDS011;48119;53.218;6.576;2022-12-07T14:59:11;2.10;;;0.68;;
58553;SDS011;48119;53.218;6.576;2022-12-07T15:01:37;3.83;;;0.90;;
58553;SDS011;48119;53.218;6.576;2022-12-07T15:04:04;3.25;;;1.35;;
58553;SDS011;48119;53.218;6.576;2022-12-07T15:06:30;2.53;;;0.93;;
58553;SDS011;48119;53.218;6.576;2022-12-07T15:08:56;1.42;;;0.80;;
58553;SDS011;48119;53.218;6.576;2022-12-07T15:11:22;2.47;;;0.63;;
58553;SDS011;48119;53.218;6.576;2022-12-07T15:13:47;4.95;;;1.20;;
58553;SDS011;48119;53.218;6.576;2022-12-07T15:16:32;4.93;;;1.38;;
58553;SDS011;48119;53.218;6.576;2022-12-07T15:18:58;3.20;;;1.35;;
58553;SDS011;48119;53.218;6.576;2022-12-07T15:21:23;2.63;;;1.50;;
58553;SDS011;48119;53.218;6.576;2022-12-07T15:23:49;4.18;;;1.75;;
58553;SDS011;48119;53.218;6.576;2022-12-07T15:26:15;5.10;;;1.92;;
58553;SDS011;48119;53.218;6.576;2022-12-07T15:28:41;7.53;;;2.42;;
58553;SDS011;48119;53.218;6.576;2022-12-07T15:31:11;5.45;;;1.70;;
58553;SDS011;48119;53.218;6.576;2022-12-07T15:33:38;4.80;;;2.05;;
58553;SDS011;48119;53.218;6.576;2022-12-07T15:36:04;7.35;;;2.42;;
58553;SDS011;48119;53.218;6.576;2022-12-07T15:38:31;5.25;;;1.70;;
58553;SDS011;48119;53.218;6.576;2022-12-07T15:40:56;5.20;;;2.13;;
58553;SDS011;48119;53.218;6.576;2022-12-07T15:43:22;6.57;;;3.03;;
58553;SDS011;48119;53.218;6.576;2022-12-07T15:46:07;5.78;;;2.63;;
58553;SDS011;48119;53.218;6.576;2022-12-07T15:48:33;5.25;;;1.90;;
58553;SDS011;48119;53.218;6.576;2022-12-07T15:51:17;7.57;;;2.10;;
58553;SDS011;48119;53.218;6.576;2022-12-07T15:53:43;8.65;;;1.90;;
58553;SDS011;48119;53.218;6.576;2022-12-07T15:56:11;5.18;;;1.30;;
58553;SDS011;48119;53.218;6.576;2022-12-07T15:58:37;3.65;;;1.90;;
58553;SDS011;48119;53.218;6.576;2022-12-07T16:01:14;7.35;;;2.42;;
58553;SDS011;48119;53.218;6.576;2022-12-07T16:03:42;2.72;;;1.45;;
58553;SDS011;48119;53.218;6.576;2022-12-07T16:06:10;4.20;;;1.92;;
58553;SDS011;48119;53.218;6.576;2022-12-07T16:08:36;3.28;;;1.50;;
58553;SDS011;48119;53.218;6.576;2022-12-07T16:11:06;4.13;;;1.65;;
58553;SDS011;48119;53.218;6.576;2022-12-07T16:13:33;7.13;;;2.35;;
58553;SDS011;48119;53.218;6.576;2022-12-07T16:16:03;6.47;;;2.55;;
58553;SDS011;48119;53.218;6.576;2022-12-07T16:18:30;5.28;;;2.20;;
58553;SDS011;48119;53.218;6.576;2022-12-07T16:20:56;6.25;;;3.00;;
58553;SDS011;48119;53.218;6.576;2022-12-07T16:23:22;6.10;;;2.10;;
58553;SDS011;48119;53.218;6.576;2022-12-07T16:25:54;5.13;;;1.73;;
58553;SDS011;48119;53.218;6.576;2022-12-07T16:28:20;6.20;;;1.98;;
58553;SDS011;48119;53.218;6.576;2022-12-07T16:30:46;5.72;;;2.03;;
58553;SDS011;48119;53.218;6.576;2022-12-07T16:33:12;4.85;;;1.88;;
58553;SDS011;48119;53.218;6.576;2022-12-07T16:35:39;3.13;;;1.15;;
58553;SDS011;48119;53.218;6.576;2022-12-07T16:38:24;3.83;;;1.48;;
58553;SDS011;48119;53.218;6.576;2022-12-07T16:40:51;3.88;;;1.70;;
58553;SDS011;48119;53.218;6.576;2022-12-07T16:43:17;6.80;;;2.05;;
58553;SDS011;48119;53.218;6.576;2022-12-07T16:45:43;6.78;;;1.58;;
58553;SDS011;48119;53.218;6.576;2022-12-07T16:48:13;4.88;;;1.95;;
58553;SDS011;48119;53.218;6.576;2022-12-07T16:50:40;5.57;;;2.15;;
58553;SDS011;48119;53.218;6.576;2022-12-07T16:53:08;3.95;;;1.55;;
58553;SDS011;48119;53.218;6.576;2022-12-07T16:55:37;6.90;;;1.60;;
58553;SDS011;48119;53.218;6.576;2022-12-07T16:58:05;6.95;;;2.20;;
58553;SDS011;48119;53.218;6.576;2022-12-07T17:00:31;3.83;;;2.50;;
58553;SDS011;48119;53.218;6.576;2022-12-07T17:02:57;5.55;;;2.58;;
58553;SDS011;48119;53.218;6.576;2022-12-07T17:05:23;9.50;;;3.00;;
58553;SDS011;48119;53.218;6.576;2022-12-07T17:07:49;4.68;;;2.25;;
58553;SDS011;48119;53.218;6.576;2022-12-07T17:10:15;9.45;;;2.22;;
58553;SDS011;48119;53.218;6.576;2022-12-07T17:12:41;3.40;;;1.52;;
58553;SDS011;48119;53.218;6.576;2022-12-07T17:15:08;5.63;;;2.28;;
58553;SDS011;48119;53.218;6.576;2022-12-07T17:17:55;6.05;;;2.35;;
58553;SDS011;48119;53.218;6.576;2022-12-07T17:20:23;4.88;;;2.00;;
58553;SDS011;48119;53.218;6.576;2022-12-07T17:22:51;4.78;;;1.67;;
58553;SDS011;48119;53.218;6.576;2022-12-07T17:25:18;3.42;;;1.60;;